createdAt,value
2023-04-04T00:01:27.401Z,35.59
2023-04-04T00:06:52.426Z,35.20
2023-04-04T00:12:16.477Z,35.30
2023-04-04T00:17:38.350Z,34.97
2023-04-04T00:23:00.650Z,35.28
2023-04-04T00:28:23.384Z,35.41
2023-04-04T00:33:45.606Z,34.59
2023-04-04T00:39:07.643Z,34.94
2023-04-04T00:44:29.374Z,35.17
2023-04-04T00:49:52.398Z,34.38
2023-04-04T00:55:14.358Z,34.87
2023-04-04T01:00:36.283Z,34.58
2023-04-04T01:05:58.353Z,34.73
2023-04-04T01:11:22.409Z,35.10
2023-04-04T01:16:44.508Z,34.65
2023-04-04T01:22:10.634Z,34.62
2023-04-04T01:27:33.383Z,35.10
2023-04-04T01:33:06.468Z,35.35
2023-04-04T01:38:44.351Z,35.24
2023-04-04T01:44:06.342Z,35.00
2023-04-04T01:49:31.342Z,35.11
2023-04-04T01:54:53.327Z,34.97
2023-04-04T02:00:16.628Z,35.41
2023-04-04T02:05:38.312Z,35.43
2023-04-04T02:11:00.591Z,35.58
2023-04-04T02:16:22.371Z,35.40
2023-04-04T02:21:44.301Z,35.43
2023-04-04T02:27:06.581Z,36.08
2023-04-04T02:32:28.586Z,36.12
2023-04-04T02:37:51.618Z,35.91
2023-04-04T02:43:22.302Z,36.26
2023-04-04T02:48:45.607Z,36.72
2023-04-04T02:54:14.301Z,36.48
2023-04-04T02:59:36.320Z,36.45
2023-04-04T03:04:58.322Z,36.75
2023-04-04T03:10:20.600Z,37.24
2023-04-04T03:15:42.568Z,37.00
2023-04-04T03:21:05.300Z,36.82
2023-04-04T03:26:27.612Z,37.01
2023-04-04T03:31:49.660Z,37.61
2023-04-04T03:37:11.278Z,37.52
2023-04-04T03:42:36.256Z,37.59
2023-04-04T03:48:02.333Z,37.73
2023-04-04T03:53:33.285Z,37.95
2023-04-04T03:58:55.330Z,37.70
2023-04-04T04:04:17.389Z,38.23
2023-04-04T04:10:04.354Z,38.08
2023-04-04T04:15:27.569Z,38.29
2023-04-04T04:20:52.566Z,38.11
2023-04-04T04:26:15.605Z,38.40
2023-04-04T04:31:37.312Z,38.73
2023-04-04T04:37:00.718Z,38.65
2023-04-04T04:42:36.508Z,38.89
2023-04-04T04:47:58.314Z,38.55
2023-04-04T04:53:29.538Z,38.77
2023-04-04T04:58:54.664Z,39.11
2023-04-04T05:04:16.570Z,38.49
2023-04-04T05:09:53.517Z,39.00
2023-04-04T05:15:15.468Z,38.85
2023-04-04T05:20:40.671Z,38.67
2023-04-04T05:26:03.320Z,38.80
2023-04-04T05:31:28.552Z,38.62
2023-04-04T05:36:55.253Z,38.71
2023-04-04T05:42:19.247Z,38.91
2023-04-04T05:47:45.277Z,38.80
2023-04-04T05:53:16.242Z,38.75
2023-04-04T05:58:40.248Z,38.64
2023-04-04T06:04:04.550Z,38.66
2023-04-04T06:09:26.231Z,38.60
2023-04-04T06:14:51.246Z,38.46
2023-04-04T06:20:14.250Z,38.70
2023-04-04T06:25:37.162Z,38.49
2023-04-04T06:30:59.284Z,38.13
2023-04-04T06:36:22.501Z,38.56
2023-04-04T06:41:46.226Z,38.50
2023-04-04T06:47:13.546Z,38.13
2023-04-04T06:52:39.056Z,38.42
2023-04-04T06:58:01.459Z,38.07
2023-04-04T07:03:23.313Z,38.63
2023-04-04T07:08:45.262Z,38.21
2023-04-04T07:14:07.223Z,38.41
2023-04-04T07:19:35.145Z,38.47
2023-04-04T07:24:57.219Z,38.70
2023-04-04T07:30:21.609Z,38.47
2023-04-04T07:35:43.200Z,38.53
2023-04-04T07:41:06.239Z,37.76
2023-04-04T07:46:28.469Z,37.52
2023-04-04T07:51:50.242Z,37.58
2023-04-04T07:57:12.180Z,37.10
2023-04-04T08:02:34.240Z,37.04
2023-04-04T08:07:56.202Z,37.11
2023-04-04T08:13:18.541Z,37.13
2023-04-04T08:18:40.188Z,36.92
2023-04-04T08:24:04.449Z,36.78
2023-04-04T08:29:26.118Z,36.66
2023-04-04T08:34:48.429Z,36.11
2023-04-04T08:40:11.226Z,35.85
2023-04-04T08:45:35.193Z,35.56
2023-04-04T08:50:58.247Z,35.38
2023-04-04T08:56:20.164Z,35.00
2023-04-04T09:01:43.140Z,35.08
2023-04-04T09:07:05.240Z,35.00
2023-04-04T09:12:29.199Z,34.51
2023-04-04T09:17:51.541Z,34.64
2023-04-04T09:23:16.182Z,34.76
2023-04-04T09:28:38.428Z,34.86
2023-04-04T09:34:00.791Z,34.55
2023-04-04T09:39:25.168Z,34.55
2023-04-04T09:44:47.217Z,34.69
2023-04-04T09:50:13.153Z,34.86
2023-04-04T09:55:43.355Z,34.67
2023-04-04T10:01:07.190Z,35.17
2023-04-04T10:06:30.225Z,34.72
2023-04-04T10:11:52.393Z,34.29
2023-04-04T10:17:20.438Z,33.88
2023-04-04T10:22:43.619Z,33.52
2023-04-04T10:28:06.168Z,33.50
2023-04-04T10:33:37.198Z,33.48
2023-04-04T10:39:22.111Z,33.20
2023-04-04T10:44:47.470Z,32.58
2023-04-04T10:50:11.152Z,33.00
2023-04-04T10:55:33.157Z,32.97
2023-04-04T11:01:01.114Z,33.41
2023-04-04T11:06:28.026Z,33.12
2023-04-04T11:12:17.004Z,33.42
2023-04-04T11:17:56.049Z,33.94
2023-04-04T11:23:29.031Z,32.54
2023-04-04T11:28:52.014Z,33.34
2023-04-04T11:34:19.004Z,32.66
2023-04-04T11:39:45.026Z,32.02
2023-04-04T11:45:07.007Z,32.10
2023-04-04T11:50:30.009Z,31.98
2023-04-04T11:55:55.996Z,32.05
2023-04-04T12:01:18.009Z,32.69
2023-04-04T12:06:42.022Z,32.78
2023-04-04T12:12:03.987Z,32.21
2023-04-04T12:17:25.988Z,31.33
2023-04-04T12:22:51.023Z,30.76
2023-04-04T12:28:14.027Z,31.41
2023-04-04T12:33:36.002Z,31.65
2023-04-04T12:39:09.001Z,30.66
2023-04-04T12:44:43.957Z,30.40
2023-04-04T12:50:05.982Z,30.32
2023-04-04T12:55:33.018Z,30.32
2023-04-04T13:01:00.124Z,30.28
2023-04-04T13:06:32.134Z,30.90
2023-04-04T13:12:11.978Z,31.14
2023-04-04T13:17:33.995Z,30.96
2023-04-04T13:22:55.982Z,30.78
2023-04-04T13:28:20.986Z,29.85
2023-04-04T13:33:43.967Z,30.06
2023-04-04T13:39:05.998Z,29.98
2023-04-04T13:44:27.978Z,28.61
2023-04-04T13:49:49.964Z,28.45
2023-04-04T13:55:13.963Z,28.85
2023-04-04T14:00:35.973Z,28.84
2023-04-04T14:06:00.339Z,29.16
2023-04-04T14:11:26.967Z,29.39
2023-04-04T14:16:48.980Z,29.22
2023-04-04T14:22:11.952Z,29.44
2023-04-04T14:27:33.965Z,29.36
2023-04-04T14:32:58.022Z,29.37
2023-04-04T14:38:19.981Z,29.26
2023-04-04T14:43:41.964Z,28.86
2023-04-04T14:49:03.966Z,29.09
2023-04-04T14:54:25.923Z,29.32
2023-04-04T15:00:02.964Z,29.94
2023-04-04T15:05:25.978Z,29.44
2023-04-04T15:10:47.953Z,28.66
2023-04-04T15:16:10.975Z,29.13
2023-04-04T15:21:33.969Z,29.30
2023-04-04T15:26:56.557Z,29.34
2023-04-04T15:32:19.015Z,28.49
2023-04-04T15:37:40.977Z,28.95
2023-04-04T15:43:03.942Z,28.43
2023-04-04T15:48:25.941Z,28.70
2023-04-04T15:53:47.935Z,28.06
2023-04-04T15:59:16.931Z,27.67
2023-04-04T16:04:38.908Z,27.09
2023-04-04T16:10:00.923Z,27.00
2023-04-04T16:15:22.928Z,26.65
2023-04-04T16:20:44.925Z,26.56
2023-04-04T16:26:06.943Z,26.90
2023-04-04T16:31:28.943Z,27.56
2023-04-04T16:36:50.963Z,27.41
2023-04-04T16:42:12.928Z,27.67
2023-04-04T16:47:34.995Z,27.63
2023-04-04T16:52:56.927Z,27.94
2023-04-04T16:58:25.910Z,27.98
2023-04-04T17:03:47.926Z,27.63
2023-04-04T17:09:09.920Z,27.45
2023-04-04T17:14:32.908Z,27.84
2023-04-04T17:19:54.922Z,27.28
2023-04-04T17:25:16.930Z,27.12
2023-04-04T17:30:39.046Z,27.07
2023-04-04T17:36:00.892Z,27.61
2023-04-04T17:41:22.897Z,27.27
2023-04-04T17:46:44.910Z,27.28
2023-04-04T17:52:06.935Z,28.04
2023-04-04T17:57:35.932Z,28.16
2023-04-04T18:02:58.019Z,28.47
2023-04-04T18:08:19.909Z,28.73
2023-04-04T18:13:41.897Z,29.26
2023-04-04T18:19:03.951Z,29.29
2023-04-04T18:24:25.917Z,29.58
2023-04-04T18:29:48.895Z,29.96
2023-04-04T18:35:10.875Z,29.83
2023-04-04T18:40:32.916Z,29.92
2023-04-04T18:45:54.916Z,29.82
2023-04-04T18:51:16.886Z,29.91
2023-04-04T18:56:39.003Z,30.77
2023-04-04T19:02:00.916Z,30.70
2023-04-04T19:07:28.875Z,30.67
2023-04-04T19:12:50.912Z,31.79
2023-04-04T19:18:12.933Z,32.29
2023-04-04T19:23:34.890Z,32.24
2023-04-04T19:28:56.902Z,31.98
2023-04-04T19:34:19.890Z,31.91
2023-04-04T19:39:42.868Z,31.94
2023-04-04T19:45:04.893Z,32.13
2023-04-04T19:50:41.884Z,32.48
2023-04-04T19:56:03.879Z,32.46
2023-04-04T20:01:32.040Z,33.13
2023-04-04T20:06:53.896Z,33.05
2023-04-04T20:12:17.876Z,33.08
2023-04-04T20:17:39.906Z,33.20
2023-04-04T20:23:01.868Z,33.67
2023-04-04T20:28:37.906Z,33.19
2023-04-04T20:33:59.878Z,33.87
2023-04-04T20:40:00.871Z,33.40
2023-04-04T20:45:46.945Z,33.45
2023-04-04T20:51:08.863Z,34.40
2023-04-04T20:56:52.873Z,34.56
2023-04-04T21:02:26.928Z,35.00
2023-04-04T21:07:49.847Z,34.16
2023-04-04T21:13:13.836Z,34.51
2023-04-04T21:18:37.843Z,34.49
2023-04-04T21:24:00.837Z,33.62
2023-04-04T21:29:28.837Z,34.24
2023-04-04T21:34:50.836Z,33.75
2023-04-04T21:40:14.834Z,33.89
2023-04-04T21:45:36.827Z,33.69
2023-04-04T21:50:58.796Z,34.08
2023-04-04T21:56:20.847Z,34.47
2023-04-04T22:01:43.852Z,34.46
2023-04-04T22:07:05.805Z,34.50
2023-04-04T22:12:29.812Z,34.45
2023-04-04T22:17:57.839Z,34.55
2023-04-04T22:23:23.117Z,34.79
2023-04-04T22:28:54.792Z,34.65
2023-04-04T22:34:16.816Z,34.62
2023-04-04T22:39:38.811Z,35.40
2023-04-04T22:45:00.815Z,35.34
2023-04-04T22:50:22.833Z,34.79
2023-04-04T22:55:45.783Z,35.13
2023-04-04T23:01:07.843Z,35.59
2023-04-04T23:06:29.810Z,35.58
2023-04-04T23:11:53.820Z,35.68
2023-04-04T23:17:15.797Z,35.40
2023-04-04T23:22:38.782Z,36.40
2023-04-04T23:28:00.779Z,36.32
2023-04-04T23:33:22.788Z,35.83
2023-04-04T23:38:44.781Z,35.36
2023-04-04T23:44:06.818Z,36.13
2023-04-04T23:49:28.782Z,35.60
2023-04-04T23:54:50.787Z,35.49
